createdAt,value
2022-11-28T00:00:22.398Z,100921.75
2022-11-28T00:00:54.091Z,100923.56
2022-11-28T00:01:27.219Z,100924.28
2022-11-28T00:01:58.807Z,100921.28
2022-11-28T00:02:30.398Z,100917.47
2022-11-28T00:03:01.998Z,100919.13
2022-11-28T00:03:33.996Z,100921.47
2022-11-28T00:04:06.257Z,100918.94
2022-11-28T00:04:37.842Z,100927.22
2022-11-28T00:05:12.564Z,100919.94
2022-11-28T00:05:47.035Z,100917.09
2022-11-28T00:06:19.271Z,100924.78
2022-11-28T00:06:51.061Z,100920.00
2022-11-28T00:07:22.889Z,100912.53
2022-11-28T00:07:55.679Z,100917.94
2022-11-28T00:08:27.313Z,100914.66
2022-11-28T00:08:59.789Z,100908.63
2022-11-28T00:09:31.244Z,100907.72
2022-11-28T00:10:03.512Z,100906.91
2022-11-28T00:10:39.354Z,100901.97
2022-11-28T00:11:12.553Z,100902.63
2022-11-28T00:11:45.630Z,100902.50
2022-11-28T00:12:17.097Z,100906.16
2022-11-28T00:12:48.569Z,100907.34
2022-11-28T00:13:20.031Z,100913.91
2022-11-28T00:13:51.511Z,100905.91
2022-11-28T00:14:23.033Z,100904.53
2022-11-28T00:14:55.170Z,100906.53
2022-11-28T00:15:26.769Z,100904.88
2022-11-28T00:15:59.855Z,100903.81
2022-11-28T00:16:31.466Z,100900.50
2022-11-28T00:17:03.213Z,100896.50
2022-11-28T00:17:34.683Z,100901.88
2022-11-28T00:18:06.158Z,100907.34
2022-11-28T00:18:37.641Z,100905.88
2022-11-28T00:19:10.871Z,100906.06
2022-11-28T00:19:42.387Z,100912.72
2022-11-28T00:20:13.880Z,100900.16
2022-11-28T00:20:45.395Z,100904.53
2022-11-28T00:21:17.497Z,100910.81
2022-11-28T00:21:49.001Z,100899.22
2022-11-28T00:22:20.489Z,100905.91
2022-11-28T00:22:52.245Z,100906.34
2022-11-28T00:23:23.775Z,100900.88
2022-11-28T00:23:55.236Z,100909.63
2022-11-28T00:24:26.783Z,100904.16
2022-11-28T00:24:58.343Z,100897.78
2022-11-28T00:25:29.790Z,100899.78
2022-11-28T00:26:04.060Z,100899.97
2022-11-28T00:26:40.994Z,100895.31
2022-11-28T00:27:12.468Z,100891.34
2022-11-28T00:27:44.054Z,100896.13
2022-11-28T00:28:15.513Z,100897.41
2022-11-28T00:28:47.247Z,100891.66
2022-11-28T00:29:18.717Z,100896.31
2022-11-28T00:29:50.288Z,100901.78
2022-11-28T00:30:21.775Z,100896.03
2022-11-28T00:30:53.256Z,100893.69
2022-11-28T00:31:30.320Z,100896.13
2022-11-28T00:32:01.947Z,100903.50
2022-11-28T00:32:33.470Z,100893.94
2022-11-28T00:33:05.052Z,100891.84
2022-11-28T00:33:36.590Z,100893.75
2022-11-28T00:34:09.653Z,100899.03
2022-11-28T00:34:41.442Z,100892.56
2022-11-28T00:35:13.433Z,100892.84
2022-11-28T00:35:44.937Z,100886.00
2022-11-28T00:36:16.841Z,100893.50
2022-11-28T00:36:48.777Z,100882.53
2022-11-28T00:37:20.264Z,100893.22
2022-11-28T00:37:51.758Z,100895.22
2022-11-28T00:38:23.178Z,100890.09
2022-11-28T00:38:54.868Z,100892.94
2022-11-28T00:39:26.333Z,100886.56
2022-11-28T00:39:57.807Z,100896.50
2022-11-28T00:40:29.261Z,100890.47
2022-11-28T00:41:02.528Z,100900.41
2022-11-28T00:41:35.276Z,100897.59
2022-11-28T00:42:06.723Z,100892.44
2022-11-28T00:42:38.220Z,100893.81
2022-11-28T00:43:11.595Z,100890.59
2022-11-28T00:43:44.195Z,100886.06
2022-11-28T00:44:15.729Z,100894.63
2022-11-28T00:44:47.509Z,100889.09
2022-11-28T00:45:19.126Z,100890.59
2022-11-28T00:45:50.768Z,100890.97
2022-11-28T00:46:23.457Z,100886.06
2022-11-28T00:46:54.943Z,100886.56
2022-11-28T00:47:26.414Z,100879.13
2022-11-28T00:47:57.907Z,100879.22
2022-11-28T00:48:29.393Z,100884.00
2022-11-28T00:49:00.894Z,100872.59
2022-11-28T00:49:32.402Z,100881.41
2022-11-28T00:50:04.361Z,100883.69
2022-11-28T00:50:35.876Z,100882.28
2022-11-28T00:51:12.777Z,100878.00
2022-11-28T00:51:44.262Z,100880.03
2022-11-28T00:52:15.744Z,100878.44
2022-11-28T00:52:47.217Z,100882.56
2022-11-28T00:53:18.767Z,100888.69
2022-11-28T00:53:51.710Z,100880.13
2022-11-28T00:54:23.143Z,100882.19
2022-11-28T00:54:54.749Z,100876.47
2022-11-28T00:55:26.183Z,100872.00
2022-11-28T00:55:57.648Z,100877.91
2022-11-28T00:56:31.843Z,100874.44
2022-11-28T00:57:03.320Z,100872.50
2022-11-28T00:57:34.820Z,100878.28
2022-11-28T00:58:06.306Z,100876.81
2022-11-28T00:58:39.052Z,100873.34
2022-11-28T00:59:10.640Z,100872.34
2022-11-28T00:59:42.068Z,100870.34
2022-11-28T01:00:14.160Z,100876.81
2022-11-28T01:00:45.651Z,100870.34
2022-11-28T01:01:25.127Z,100873.63
2022-11-28T01:01:56.743Z,100863.44
2022-11-28T01:02:28.318Z,100871.81
2022-11-28T01:02:59.970Z,100864.69
2022-11-28T01:03:31.435Z,100871.25
2022-11-28T01:04:06.558Z,100868.25
2022-11-28T01:04:38.038Z,100863.72
2022-11-28T01:05:09.512Z,100864.28
2022-11-28T01:05:41.998Z,100859.94
2022-11-28T01:06:20.848Z,100858.88
2022-11-28T01:06:52.371Z,100861.84
2022-11-28T01:07:23.927Z,100858.78
2022-11-28T01:07:55.464Z,100860.94
2022-11-28T01:08:27.658Z,100858.13
2022-11-28T01:09:02.001Z,100861.03
2022-11-28T01:09:33.545Z,100867.63
2022-11-28T01:10:05.558Z,100867.06
2022-11-28T01:10:44.735Z,100864.31
2022-11-28T01:11:16.284Z,100859.84
2022-11-28T01:11:49.541Z,100859.03
2022-11-28T01:12:21.105Z,100857.44
2022-11-28T01:12:52.545Z,100858.63
2022-11-28T01:13:24.211Z,100861.03
2022-11-28T01:13:58.568Z,100857.13
2022-11-28T01:14:30.523Z,100852.91
2022-11-28T01:15:01.992Z,100863.69
2022-11-28T01:15:33.450Z,100858.88
2022-11-28T01:16:05.204Z,100856.63
2022-11-28T01:16:36.963Z,100859.66
2022-11-28T01:17:09.069Z,100863.25
2022-11-28T01:17:40.608Z,100859.41
2022-11-28T01:18:12.092Z,100855.00
2022-11-28T01:18:43.607Z,100861.66
2022-11-28T01:19:15.206Z,100863.06
2022-11-28T01:19:46.655Z,100861.59
2022-11-28T01:20:18.217Z,100861.75
2022-11-28T01:20:49.704Z,100856.13
2022-11-28T01:21:21.623Z,100849.53
2022-11-28T01:21:53.230Z,100848.44
2022-11-28T01:22:24.685Z,100849.19
2022-11-28T01:22:56.215Z,100852.47
2022-11-28T01:23:27.826Z,100854.09
2022-11-28T01:23:59.302Z,100851.72
2022-11-28T01:24:30.773Z,100855.22
2022-11-28T01:25:02.262Z,100849.69
2022-11-28T01:25:33.706Z,100851.13
2022-11-28T01:26:07.117Z,100847.28
2022-11-28T01:26:40.176Z,100856.25
2022-11-28T01:27:11.786Z,100853.53
2022-11-28T01:27:43.241Z,100852.09
2022-11-28T01:28:14.706Z,100851.34
2022-11-28T01:28:46.891Z,100845.66
2022-11-28T01:29:18.562Z,100854.16
2022-11-28T01:29:50.352Z,100853.53
2022-11-28T01:30:21.817Z,100852.72
2022-11-28T01:30:53.269Z,100850.81
2022-11-28T01:31:27.071Z,100837.66
2022-11-28T01:31:58.660Z,100835.84
2022-11-28T01:32:30.614Z,100843.84
2022-11-28T01:33:02.077Z,100846.41
2022-11-28T01:33:33.753Z,100843.97
2022-11-28T01:34:05.250Z,100845.16
2022-11-28T01:34:36.873Z,100854.22
2022-11-28T01:35:08.842Z,100846.47
2022-11-28T01:35:40.317Z,100853.41
2022-11-28T01:36:12.910Z,100844.97
2022-11-28T01:36:44.383Z,100844.06
2022-11-28T01:37:15.838Z,100846.47
2022-11-28T01:37:47.360Z,100840.63
2022-11-28T01:38:18.788Z,100844.91
2022-11-28T01:38:50.416Z,100846.97
2022-11-28T01:39:21.865Z,100839.59
2022-11-28T01:39:53.375Z,100845.53
2022-11-28T01:40:25.201Z,100853.97
2022-11-28T01:40:56.808Z,100852.59
2022-11-28T01:41:28.810Z,100846.47
2022-11-28T01:42:00.326Z,100836.47
2022-11-28T01:42:31.949Z,100840.75
2022-11-28T01:43:03.601Z,100849.31
2022-11-28T01:43:35.961Z,100847.16
2022-11-28T01:44:27.462Z,100844.47
2022-11-28T01:45:02.582Z,100846.28
2022-11-28T01:45:34.126Z,100844.03
2022-11-28T01:46:05.660Z,100835.47
2022-11-28T01:46:37.471Z,100843.66
2022-11-28T01:47:09.124Z,100841.56
2022-11-28T01:47:41.167Z,100837.47
2022-11-28T01:48:16.013Z,100840.75
2022-11-28T01:48:47.673Z,100840.31
2022-11-28T01:49:24.565Z,100847.25
2022-11-28T01:49:56.192Z,100840.31
2022-11-28T01:50:29.126Z,100835.84
2022-11-28T01:51:02.445Z,100844.91
2022-11-28T01:51:34.539Z,100840.84
2022-11-28T01:52:10.185Z,100841.53
2022-11-28T01:52:45.051Z,100840.03
2022-11-28T01:53:16.929Z,100839.84
2022-11-28T01:53:48.798Z,100831.41
2022-11-28T01:54:23.021Z,100836.72
2022-11-28T01:54:57.753Z,100838.97
2022-11-28T01:55:34.082Z,100834.31
2022-11-28T01:56:21.127Z,100829.66
2022-11-28T01:56:59.210Z,100834.13
2022-11-28T01:57:30.832Z,100832.25
2022-11-28T01:58:02.331Z,100836.56
2022-11-28T01:58:35.132Z,100826.63
2022-11-28T01:59:08.045Z,100825.44
2022-11-28T01:59:43.715Z,100828.81
2022-11-28T02:00:18.753Z,100821.31
2022-11-28T02:00:50.324Z,100829.03
2022-11-28T02:01:24.348Z,100829.72
2022-11-28T02:01:55.929Z,100827.94
2022-11-28T02:02:35.162Z,100827.44
2022-11-28T02:03:10.582Z,100826.63
2022-11-28T02:03:47.377Z,100821.44
2022-11-28T02:04:18.959Z,100823.84
2022-11-28T02:04:50.589Z,100829.53
2022-11-28T02:05:22.670Z,100833.19
2022-11-28T02:05:54.304Z,100825.25
2022-11-28T02:06:26.186Z,100824.97
2022-11-28T02:06:57.666Z,100823.84
2022-11-28T02:07:29.167Z,100823.00
2022-11-28T02:08:00.810Z,100820.81
2022-11-28T02:08:35.903Z,100824.78
2022-11-28T02:09:13.715Z,100822.84
2022-11-28T02:09:45.488Z,100818.81
2022-11-28T02:10:21.168Z,100817.69
2022-11-28T02:11:06.000Z,100822.28
2022-11-28T02:11:43.190Z,100818.63
2022-11-28T02:12:23.536Z,100817.56
2022-11-28T02:12:59.842Z,100818.81
2022-11-28T02:13:40.862Z,100820.25
2022-11-28T02:14:20.995Z,100822.47
2022-11-28T02:15:18.232Z,100821.84
2022-11-28T02:16:10.892Z,100817.25
2022-11-28T02:17:03.208Z,100825.53
2022-11-28T02:17:41.147Z,100822.31
2022-11-28T02:18:24.577Z,100822.31
2022-11-28T02:19:33.318Z,100817.38
2022-11-28T02:20:43.277Z,100821.03
2022-11-28T02:21:26.842Z,100817.66
2022-11-28T02:22:01.442Z,100816.16
2022-11-28T02:22:46.900Z,100812.69
2022-11-28T02:23:24.672Z,100809.22
2022-11-28T02:24:23.926Z,100808.75
2022-11-28T02:25:20.168Z,100812.75
2022-11-28T02:26:22.719Z,100819.19
2022-11-28T02:27:14.460Z,100815.53
2022-11-28T02:28:19.046Z,100816.34
2022-11-28T02:29:38.302Z,100822.53
2022-11-28T02:30:15.016Z,100815.69
2022-11-28T02:31:12.860Z,100809.19
2022-11-28T02:32:02.562Z,100817.50
2022-11-28T02:32:49.021Z,100815.88
2022-11-28T02:33:32.037Z,100809.88
2022-11-28T02:34:09.556Z,100804.97
2022-11-28T02:34:50.748Z,100814.28
2022-11-28T02:35:32.745Z,100805.09
2022-11-28T02:36:18.598Z,100812.31
2022-11-28T02:37:06.220Z,100808.63
2022-11-28T02:37:45.402Z,100809.00
2022-11-28T02:38:23.615Z,100815.50
2022-11-28T02:39:13.219Z,100807.22
2022-11-28T02:39:54.280Z,100810.25
2022-11-28T02:40:38.017Z,100807.22
2022-11-28T02:41:12.233Z,100820.06
2022-11-28T02:42:09.299Z,100817.22
2022-11-28T02:42:48.203Z,100815.69
2022-11-28T02:43:52.453Z,100814.78
2022-11-28T02:44:33.805Z,100810.44
2022-11-28T02:45:28.237Z,100819.97
2022-11-28T02:46:36.552Z,100818.19
2022-11-28T02:47:27.849Z,100804.19
2022-11-28T02:48:03.901Z,100808.38
2022-11-28T02:48:44.022Z,100809.88
2022-11-28T02:49:20.668Z,100816.13
2022-11-28T02:50:14.070Z,100811.66
2022-11-28T02:50:52.676Z,100808.00
2022-11-28T02:51:31.577Z,100807.19
2022-11-28T02:52:29.933Z,100806.53
2022-11-28T02:53:13.193Z,100807.75
2022-11-28T02:53:46.321Z,100805.63
2022-11-28T02:54:18.606Z,100807.38
2022-11-28T02:54:51.034Z,100809.63
2022-11-28T02:55:23.232Z,100801.31
2022-11-28T02:55:55.090Z,100796.97
2022-11-28T02:56:26.749Z,100799.22
2022-11-28T02:56:58.553Z,100801.31
2022-11-28T02:57:41.564Z,100800.28
2022-11-28T02:58:13.131Z,100802.31
2022-11-28T02:58:44.611Z,100800.81
2022-11-28T02:59:44.279Z,100794.75
2022-11-28T03:00:45.935Z,100798.09
2022-11-28T03:01:21.581Z,100799.66
2022-11-28T03:01:53.221Z,100796.06
2022-11-28T03:02:32.303Z,100804.16
2022-11-28T03:03:14.390Z,100796.41
2022-11-28T03:04:16.092Z,100791.97
2022-11-28T03:05:08.213Z,100795.25
2022-11-28T03:05:47.745Z,100792.88
2022-11-28T03:06:32.682Z,100792.50
2022-11-28T03:07:30.465Z,100795.25
2022-11-28T03:08:17.521Z,100804.19
2022-11-28T03:08:54.883Z,100795.44
2022-11-28T03:09:42.782Z,100798.28
2022-11-28T03:10:53.953Z,100805.22
2022-11-28T03:11:34.993Z,100797.50
2022-11-28T03:12:12.466Z,100801.81
2022-11-28T03:13:10.595Z,100794.69
2022-11-28T03:13:50.218Z,100808.22
2022-11-28T03:14:49.550Z,100800.53
2022-11-28T03:15:26.780Z,100787.94
2022-11-28T03:16:27.659Z,100794.25
2022-11-28T03:17:18.936Z,100797.28
2022-11-28T03:17:59.175Z,100794.03
2022-11-28T03:18:55.531Z,100799.28
2022-11-28T03:19:28.053Z,100801.31
2022-11-28T03:20:02.289Z,100796.41
2022-11-28T03:21:00.282Z,100793.13
2022-11-28T03:21:55.801Z,100802.31
2022-11-28T03:22:29.901Z,100801.25
2022-11-28T03:23:20.530Z,100794.44
2022-11-28T03:23:56.587Z,100794.88
2022-11-28T03:24:43.385Z,100804.16
2022-11-28T03:25:39.302Z,100801.06
2022-11-28T03:26:30.552Z,100791.09
2022-11-28T03:27:07.764Z,100802.94
2022-11-28T03:27:45.428Z,100801.44
2022-11-28T03:28:24.312Z,100807.47
2022-11-28T03:29:01.402Z,100801.75
2022-11-28T03:29:40.157Z,100801.25
2022-11-28T03:30:16.973Z,100808.19
2022-11-28T03:30:53.234Z,100804.97
2022-11-28T03:31:30.692Z,100803.00
2022-11-28T03:32:06.699Z,100805.59
2022-11-28T03:32:38.894Z,100813.66
2022-11-28T03:33:12.813Z,100807.56
2022-11-28T03:33:52.834Z,100807.59
2022-11-28T03:34:29.013Z,100809.09
2022-11-28T03:35:06.740Z,100799.81
2022-11-28T03:35:43.417Z,100816.16
2022-11-28T03:36:18.447Z,100806.97
2022-11-28T03:37:03.444Z,100802.06
2022-11-28T03:37:38.328Z,100797.91
2022-11-28T03:38:40.339Z,100802.19
2022-11-28T03:39:14.933Z,100809.09
2022-11-28T03:39:50.560Z,100804.56
2022-11-28T03:40:25.310Z,100801.06
2022-11-28T03:40:59.601Z,100804.19
2022-11-28T03:41:34.916Z,100806.22
2022-11-28T03:42:29.481Z,100806.22
2022-11-28T03:43:04.045Z,100804.97
2022-11-28T03:43:41.908Z,100803.72
2022-11-28T03:44:23.597Z,100798.41
2022-11-28T03:45:10.579Z,100803.72
2022-11-28T03:45:49.658Z,100807.03
2022-11-28T03:46:24.026Z,100799.28
2022-11-28T03:46:58.011Z,100810.25
2022-11-28T03:47:34.412Z,100803.81
2022-11-28T03:48:13.822Z,100813.78
2022-11-28T03:48:47.573Z,100813.28
2022-11-28T03:49:32.045Z,100809.28
2022-11-28T03:50:09.045Z,100801.13
2022-11-28T03:50:44.868Z,100798.41
2022-11-28T03:51:18.984Z,100801.56
2022-11-28T03:51:56.753Z,100798.41
2022-11-28T03:52:31.951Z,100805.44
2022-11-28T03:53:06.573Z,100808.03
2022-11-28T03:54:08.097Z,100806.97
2022-11-28T03:54:49.950Z,100806.59
2022-11-28T03:55:43.872Z,100813.22
2022-11-28T03:56:22.174Z,100804.16
2022-11-28T03:57:02.377Z,100799.66
2022-11-28T03:57:37.518Z,100802.75
2022-11-28T03:58:18.197Z,100799.66
2022-11-28T03:58:55.007Z,100802.50
2022-11-28T03:59:32.387Z,100793.75
2022-11-28T04:00:08.569Z,100807.13
2022-11-28T04:00:51.993Z,100801.19
2022-11-28T04:01:34.407Z,100801.13
2022-11-28T04:02:28.294Z,100803.31
2022-11-28T04:03:11.833Z,100807.75
2022-11-28T04:03:58.513Z,100808.50
2022-11-28T04:04:46.067Z,100805.09
2022-11-28T04:05:23.608Z,100804.84
2022-11-28T04:06:02.422Z,100800.81
2022-11-28T04:07:00.153Z,100796.78
2022-11-28T04:07:37.450Z,100799.63
2022-11-28T04:08:14.241Z,100799.28
2022-11-28T04:08:50.325Z,100802.38
2022-11-28T04:09:48.228Z,100803.38
2022-11-28T04:10:33.562Z,100799.66
2022-11-28T04:11:13.655Z,100796.97
2022-11-28T04:11:51.508Z,100804.84
2022-11-28T04:12:51.719Z,100806.16
2022-11-28T04:13:32.233Z,100806.22
2022-11-28T04:14:10.049Z,100802.94
2022-11-28T04:14:47.806Z,100813.91
2022-11-28T04:15:54.589Z,100801.31
2022-11-28T04:16:36.524Z,100800.88
2022-11-28T04:17:17.509Z,100803.91
2022-11-28T04:17:59.744Z,100800.44
2022-11-28T04:18:40.112Z,100807.75
2022-11-28T04:19:17.076Z,100808.50
2022-11-28T04:19:55.258Z,100803.28
2022-11-28T04:20:26.702Z,100807.13
2022-11-28T04:21:08.835Z,100804.47
2022-11-28T04:22:15.485Z,100811.78
2022-11-28T04:22:55.374Z,100815.44
2022-11-28T04:23:27.169Z,100806.50
2022-11-28T04:24:04.143Z,100809.75
2022-11-28T04:24:39.571Z,100812.16
2022-11-28T04:25:15.032Z,100803.22
2022-11-28T04:25:55.694Z,100804.47
2022-11-28T04:26:38.912Z,100804.03
2022-11-28T04:27:13.737Z,100796.66
2022-11-28T04:27:49.066Z,100804.09
2022-11-28T04:28:23.691Z,100794.31
2022-11-28T04:28:56.765Z,100794.53
2022-11-28T04:29:33.199Z,100798.59
2022-11-28T04:30:05.728Z,100798.38
2022-11-28T04:30:38.326Z,100801.69
2022-11-28T04:31:09.941Z,100803.09
2022-11-28T04:31:43.411Z,100799.44
2022-11-28T04:32:16.376Z,100800.81
2022-11-28T04:32:50.645Z,100803.38
2022-11-28T04:33:24.210Z,100805.09
2022-11-28T04:34:00.036Z,100796.16
2022-11-28T04:34:33.240Z,100800.56
2022-11-28T04:35:32.705Z,100802.47
2022-11-28T04:36:05.643Z,100804.09
2022-11-28T04:36:40.359Z,100801.94
2022-11-28T04:37:16.893Z,100797.16
2022-11-28T04:37:49.688Z,100803.56
2022-11-28T04:38:23.607Z,100805.25
2022-11-28T04:38:56.736Z,100804.38
2022-11-28T04:39:32.752Z,100798.84
2022-11-28T04:40:07.727Z,100802.31
2022-11-28T04:40:49.190Z,100808.84
2022-11-28T04:41:24.953Z,100804.84
2022-11-28T04:42:03.174Z,100804.38
2022-11-28T04:42:45.671Z,100806.78
2022-11-28T04:43:28.235Z,100797.53
2022-11-28T04:44:05.094Z,100797.59
2022-11-28T04:44:52.140Z,100797.53
2022-11-28T04:45:36.059Z,100799.56
2022-11-28T04:46:13.427Z,100807.75
2022-11-28T04:46:48.508Z,100802.03
2022-11-28T04:47:20.049Z,100806.50
2022-11-28T04:47:51.500Z,100797.94
2022-11-28T04:48:23.193Z,100804.91
2022-11-28T04:48:55.218Z,100807.75
2022-11-28T04:49:28.390Z,100803.22
2022-11-28T04:49:59.961Z,100801.69
2022-11-28T04:50:42.653Z,100801.63
2022-11-28T04:51:22.200Z,100795.53
2022-11-28T04:52:30.997Z,100807.38
2022-11-28T04:53:13.924Z,100809.88
2022-11-28T04:54:01.257Z,100810.06
2022-11-28T04:54:45.176Z,100812.91
2022-11-28T04:55:43.068Z,100809.88
2022-11-28T04:56:21.554Z,100810.34
2022-11-28T04:56:58.109Z,100805.47
2022-11-28T04:57:50.678Z,100806.59
2022-11-28T04:58:39.798Z,100806.34
2022-11-28T04:59:12.838Z,100801.69
2022-11-28T04:59:44.497Z,100807.59
2022-11-28T05:00:19.282Z,100802.91
2022-11-28T05:00:53.147Z,100796.63
2022-11-28T05:01:26.468Z,100804.09
2022-11-28T05:01:58.877Z,100802.69
2022-11-28T05:02:30.873Z,100798.03
2022-11-28T05:03:02.914Z,100797.16
2022-11-28T05:03:37.724Z,100800.44
2022-11-28T05:04:13.068Z,100800.44
2022-11-28T05:04:45.285Z,100810.00
2022-11-28T05:05:19.663Z,100801.81
2022-11-28T05:05:51.672Z,100805.16
2022-11-28T05:06:31.153Z,100809.38
2022-11-28T05:07:07.497Z,100804.09
2022-11-28T05:07:39.111Z,100812.22
2022-11-28T05:08:11.001Z,100806.09
2022-11-28T05:08:42.458Z,100806.53
2022-11-28T05:09:14.195Z,100805.16
2022-11-28T05:09:45.636Z,100798.81
2022-11-28T05:10:17.553Z,100802.50
2022-11-28T05:10:49.253Z,100800.44
2022-11-28T05:11:21.009Z,100803.31
2022-11-28T05:11:52.475Z,100806.16
2022-11-28T05:12:23.925Z,100802.47
2022-11-28T05:12:55.439Z,100804.09
2022-11-28T05:13:26.961Z,100802.47
2022-11-28T05:13:58.642Z,100801.19
2022-11-28T05:14:30.288Z,100796.91
2022-11-28T05:15:01.819Z,100804.56
2022-11-28T05:15:33.340Z,100801.81
2022-11-28T05:16:05.834Z,100808.50
2022-11-28T05:16:37.394Z,100811.50
2022-11-28T05:17:11.991Z,100812.16
2022-11-28T05:17:43.549Z,100800.81
2022-11-28T05:18:15.112Z,100799.56
2022-11-28T05:18:46.605Z,100799.22
2022-11-28T05:19:18.417Z,100805.09
2022-11-28T05:19:49.844Z,100802.56
2022-11-28T05:20:21.365Z,100806.53
2022-11-28T05:20:52.852Z,100805.28
2022-11-28T05:21:24.384Z,100806.09
2022-11-28T05:21:55.967Z,100801.69
2022-11-28T05:22:27.505Z,100806.97
2022-11-28T05:22:58.960Z,100798.81
2022-11-28T05:23:30.413Z,100808.50
2022-11-28T05:24:01.948Z,100808.84
2022-11-28T05:24:33.406Z,100813.81
2022-11-28T05:25:06.117Z,100811.16
2022-11-28T05:25:39.814Z,100801.63
2022-11-28T05:26:14.617Z,100803.66
2022-11-28T05:26:46.134Z,100800.38
2022-11-28T05:27:17.587Z,100807.75
2022-11-28T05:27:49.145Z,100806.31
2022-11-28T05:28:20.642Z,100808.13
2022-11-28T05:28:52.574Z,100805.47
2022-11-28T05:29:25.409Z,100806.88
2022-11-28T05:29:56.836Z,100810.53
2022-11-28T05:30:28.283Z,100809.31
2022-11-28T05:31:00.918Z,100803.22
2022-11-28T05:31:32.470Z,100800.25
2022-11-28T05:32:04.473Z,100805.72
2022-11-28T05:32:36.478Z,100807.31
2022-11-28T05:33:07.945Z,100806.34
2022-11-28T05:33:39.749Z,100801.56
2022-11-28T05:34:11.254Z,100803.56
2022-11-28T05:34:43.001Z,100800.16
2022-11-28T05:35:14.855Z,100801.94
2022-11-28T05:35:46.290Z,100803.31
2022-11-28T05:36:17.961Z,100805.72
2022-11-28T05:36:49.403Z,100807.75
2022-11-28T05:37:20.833Z,100815.50
2022-11-28T05:37:52.286Z,100804.97
2022-11-28T05:38:23.902Z,100805.16
2022-11-28T05:38:56.022Z,100804.38
2022-11-28T05:39:27.666Z,100805.09
2022-11-28T05:39:59.327Z,100814.25
2022-11-28T05:40:30.805Z,100811.78
2022-11-28T05:41:02.837Z,100812.41
2022-11-28T05:41:34.732Z,100814.63
2022-11-28T05:42:06.323Z,100814.16
2022-11-28T05:42:37.821Z,100811.69
2022-11-28T05:43:09.389Z,100808.50
2022-11-28T05:43:40.855Z,100813.16
2022-11-28T05:44:12.309Z,100812.50
2022-11-28T05:44:43.867Z,100812.28
2022-11-28T05:45:15.527Z,100817.91
2022-11-28T05:45:47.080Z,100817.44
2022-11-28T05:46:19.183Z,100821.59
2022-11-28T05:46:50.818Z,100819.78
2022-11-28T05:47:23.865Z,100816.94
2022-11-28T05:47:55.383Z,100819.97
2022-11-28T05:48:27.288Z,100823.63
2022-11-28T05:48:58.823Z,100823.25
2022-11-28T05:49:30.272Z,100817.69
2022-11-28T05:50:01.740Z,100821.09
2022-11-28T05:50:38.498Z,100823.56
2022-11-28T05:51:11.651Z,100822.84
2022-11-28T05:51:43.120Z,100827.28
2022-11-28T05:52:14.568Z,100819.72
2022-11-28T05:52:46.003Z,100820.72
2022-11-28T05:53:19.271Z,100814.25
2022-11-28T05:53:50.913Z,100823.56
2022-11-28T05:54:22.500Z,100825.41
2022-11-28T05:54:53.953Z,100826.03
2022-11-28T05:55:25.495Z,100820.34
2022-11-28T05:55:56.941Z,100818.72
2022-11-28T05:56:28.454Z,100818.47
2022-11-28T05:57:00.030Z,100821.72
2022-11-28T05:57:32.119Z,100821.59
2022-11-28T05:58:03.732Z,100827.91
2022-11-28T05:58:35.385Z,100827.28
2022-11-28T05:59:06.873Z,100826.84
2022-11-28T05:59:38.353Z,100824.38
2022-11-28T06:00:10.365Z,100830.94
2022-11-28T06:00:45.127Z,100826.13
2022-11-28T06:01:19.140Z,100825.25
2022-11-28T06:01:50.748Z,100828.28
2022-11-28T06:02:22.278Z,100827.28
2022-11-28T06:02:58.401Z,100829.53
2022-11-28T06:03:32.686Z,100826.66
2022-11-28T06:04:04.263Z,100829.47
2022-11-28T06:04:36.232Z,100826.25
2022-11-28T06:05:27.641Z,100824.06
2022-11-28T06:05:59.377Z,100824.06
2022-11-28T06:06:33.545Z,100831.94
2022-11-28T06:07:05.074Z,100832.13
2022-11-28T06:07:36.593Z,100823.75
2022-11-28T06:08:08.137Z,100833.47
2022-11-28T06:08:40.440Z,100825.25
2022-11-28T06:09:11.908Z,100823.81
2022-11-28T06:09:43.473Z,100825.63
2022-11-28T06:10:15.052Z,100832.94
2022-11-28T06:10:56.281Z,100823.25
2022-11-28T06:11:30.603Z,100824.00
2022-11-28T06:12:02.263Z,100823.38
2022-11-28T06:12:34.001Z,100822.38
2022-11-28T06:13:05.535Z,100825.00
2022-11-28T06:13:37.008Z,100830.94
2022-11-28T06:14:09.879Z,100826.84
2022-11-28T06:14:41.400Z,100823.00
2022-11-28T06:15:12.889Z,100829.53
2022-11-28T06:15:45.067Z,100831.94
2022-11-28T06:16:20.289Z,100825.63
2022-11-28T06:16:51.887Z,100828.09
2022-11-28T06:17:23.534Z,100827.66
2022-11-28T06:17:55.703Z,100827.66
2022-11-28T06:18:27.252Z,100828.03
2022-11-28T06:19:00.944Z,100828.91
2022-11-28T06:19:32.644Z,100833.19
2022-11-28T06:20:04.962Z,100835.84
2022-11-28T06:20:36.487Z,100837.72
2022-11-28T06:21:09.597Z,100836.34
2022-11-28T06:21:41.119Z,100828.91
2022-11-28T06:22:12.554Z,100834.84
2022-11-28T06:22:46.553Z,100837.47
2022-11-28T06:23:18.121Z,100832.75
2022-11-28T06:23:49.756Z,100833.56
2022-11-28T06:24:21.196Z,100825.88
2022-11-28T06:24:52.665Z,100834.06
2022-11-28T06:25:24.208Z,100837.59
2022-11-28T06:25:55.653Z,100833.81
2022-11-28T06:26:28.717Z,100839.13
2022-11-28T06:27:00.190Z,100833.81
2022-11-28T06:27:31.772Z,100840.00
2022-11-28T06:28:03.341Z,100833.81
2022-11-28T06:28:35.653Z,100830.09
2022-11-28T06:29:07.108Z,100837.47
2022-11-28T06:29:38.585Z,100835.41
2022-11-28T06:30:10.215Z,100838.25
2022-11-28T06:30:43.459Z,100834.59
2022-11-28T06:31:25.248Z,100837.47
2022-11-28T06:31:56.855Z,100830.50
2022-11-28T06:32:28.465Z,100832.56
2022-11-28T06:32:59.924Z,100837.84
2022-11-28T06:33:31.452Z,100832.06
2022-11-28T06:34:03.082Z,100829.22
2022-11-28T06:34:34.586Z,100836.66
2022-11-28T06:35:06.510Z,100832.19
2022-11-28T06:35:37.958Z,100838.28
2022-11-28T06:36:10.435Z,100833.00
2022-11-28T06:36:43.109Z,100828.63
2022-11-28T06:37:14.590Z,100839.34
2022-11-28T06:37:46.037Z,100836.91
2022-11-28T06:38:17.502Z,100838.28
2022-11-28T06:38:49.121Z,100841.75
2022-11-28T06:39:20.741Z,100833.88
2022-11-28T06:39:52.287Z,100836.28
2022-11-28T06:40:23.774Z,100836.47
2022-11-28T06:40:59.933Z,100833.44
2022-11-28T06:41:31.548Z,100836.72
2022-11-28T06:42:03.215Z,100843.25
2022-11-28T06:42:37.662Z,100831.66
2022-11-28T06:43:09.101Z,100835.47
2022-11-28T06:43:40.957Z,100837.72
2022-11-28T06:44:14.582Z,100835.06
2022-11-28T06:44:46.030Z,100842.06
2022-11-28T06:45:17.991Z,100840.38
2022-11-28T06:45:49.442Z,100840.38
2022-11-28T06:46:21.757Z,100843.44
2022-11-28T06:46:54.805Z,100845.09
2022-11-28T06:47:26.232Z,100839.59
2022-11-28T06:47:57.789Z,100840.81
2022-11-28T06:48:29.553Z,100844.66
2022-11-28T06:49:01.108Z,100848.31
2022-11-28T06:49:32.605Z,100842.78